IGO1855 VABB-FSIA
Flight info
| Callsign | IGO1855 |
|---|---|
| Flight time | N/A |
| Altitude | 34000 |
| Route | OMKIS2B GUNDI B459 GOLEM/N0459F360 B459 CLAVA/N0450F370 UL441 PRA |
| Aircraft | A320/M-SDE3FGHIRWY/LB1 |
Departure
| Time | N/A |
|---|---|
| Airport | Chhatrapati Shivaji Maharaj International Airport (VABB) |
Arrival
| Time | 2026-04-18 09:34 |
|---|---|
| Airport | Seychelles International Airport (FSIA) |
| Time | Latitude | Longitude | Altitude | Speed | Heading |
|---|---|---|---|---|---|
| 2026-04-18 08:29 | -1.47348 | 57.71148 | 33936 ft | 457 kts | 215° |
| 2026-04-18 08:29 | -1.52547 | 57.67473 | 33939 ft | 457 kts | 215° |
| 2026-04-18 08:30 | -1.57721 | 57.63826 | 33938 ft | 457 kts | 215° |
| 2026-04-18 08:30 | -1.62926 | 57.60154 | 33938 ft | 456 kts | 215° |
| 2026-04-18 08:31 | -1.68123 | 57.56489 | 33938 ft | 456 kts | 215° |
| 2026-04-18 08:31 | -1.73277 | 57.52850 | 33936 ft | 456 kts | 215° |
| 2026-04-18 08:32 | -1.78469 | 57.49177 | 33935 ft | 456 kts | 215° |
| 2026-04-18 08:32 | -1.83619 | 57.45547 | 33935 ft | 455 kts | 215° |
| 2026-04-18 08:33 | -1.88799 | 57.41894 | 33935 ft | 455 kts | 215° |
| 2026-04-18 08:33 | -1.93972 | 57.38240 | 33935 ft | 455 kts | 215° |
| 2026-04-18 08:34 | -1.99149 | 57.34586 | 33936 ft | 454 kts | 215° |
| 2026-04-18 08:34 | -2.04286 | 57.30968 | 33936 ft | 454 kts | 215° |
| 2026-04-18 08:35 | -2.09445 | 57.27327 | 33934 ft | 454 kts | 215° |
| 2026-04-18 08:35 | -2.14604 | 57.23680 | 33934 ft | 453 kts | 215° |
| 2026-04-18 08:36 | -2.19770 | 57.20035 | 33932 ft | 453 kts | 215° |
| 2026-04-18 08:36 | -2.24924 | 57.16398 | 33932 ft | 453 kts | 215° |
| 2026-04-18 08:37 | -2.30079 | 57.12754 | 33934 ft | 453 kts | 215° |
| 2026-04-18 08:37 | -2.35202 | 57.09141 | 33934 ft | 453 kts | 215° |
| 2026-04-18 08:38 | -2.40371 | 57.05488 | 33932 ft | 453 kts | 215° |
| 2026-04-18 08:38 | -2.45518 | 57.01841 | 33927 ft | 453 kts | 215° |
| 2026-04-18 08:39 | -2.50630 | 56.98224 | 33925 ft | 453 kts | 215° |
| 2026-04-18 08:39 | -2.55801 | 56.94575 | 33929 ft | 453 kts | 215° |
| 2026-04-18 08:40 | -2.60951 | 56.90945 | 33926 ft | 453 kts | 215° |
| 2026-04-18 08:40 | -2.66078 | 56.87323 | 33929 ft | 453 kts | 215° |
| 2026-04-18 08:41 | -2.71239 | 56.83674 | 33929 ft | 453 kts | 215° |
| 2026-04-18 08:41 | -2.76387 | 56.80033 | 33932 ft | 452 kts | 215° |
| 2026-04-18 08:42 | -2.81507 | 56.76407 | 33930 ft | 452 kts | 215° |
| 2026-04-18 08:42 | -2.86628 | 56.72785 | 33926 ft | 452 kts | 215° |
| 2026-04-18 08:43 | -2.91772 | 56.69150 | 33925 ft | 452 kts | 215° |
| 2026-04-18 08:43 | -2.96918 | 56.65508 | 33926 ft | 452 kts | 215° |
| 2026-04-18 08:44 | -3.02065 | 56.61871 | 33926 ft | 452 kts | 215° |
| 2026-04-18 08:44 | -3.07203 | 56.58245 | 33924 ft | 452 kts | 215° |
| 2026-04-18 08:45 | -3.12318 | 56.54627 | 33925 ft | 452 kts | 216° |
| 2026-04-18 08:45 | -3.17449 | 56.50985 | 33922 ft | 451 kts | 216° |
| 2026-04-18 08:46 | -3.22588 | 56.47346 | 33923 ft | 451 kts | 216° |
| 2026-04-18 08:46 | -3.27722 | 56.43725 | 33924 ft | 451 kts | 215° |
| 2026-04-18 08:47 | -3.32833 | 56.40121 | 33923 ft | 451 kts | 216° |
| 2026-04-18 08:47 | -3.37957 | 56.36493 | 33923 ft | 451 kts | 216° |
| 2026-04-18 08:48 | -3.43091 | 56.32850 | 33772 ft | 452 kts | 216° |
| 2026-04-18 08:48 | -3.45676 | 56.31018 | 32815 ft | 459 kts | 216° |
| 2026-04-18 08:48 | -3.48237 | 56.29205 | 32418 ft | 453 kts | 216° |
| 2026-04-18 08:48 | -3.50808 | 56.27388 | 31885 ft | 450 kts | 216° |
| 2026-04-18 08:49 | -3.53360 | 56.25582 | 31361 ft | 448 kts | 216° |
| 2026-04-18 08:49 | -3.55903 | 56.23780 | 30841 ft | 446 kts | 216° |
| 2026-04-18 08:49 | -3.58438 | 56.21983 | 30317 ft | 443 kts | 216° |
| 2026-04-18 08:49 | -3.60951 | 56.20202 | 29784 ft | 442 kts | 216° |
| 2026-04-18 08:50 | -3.63421 | 56.18452 | 29261 ft | 438 kts | 216° |
| 2026-04-18 08:50 | -3.65902 | 56.16696 | 28776 ft | 433 kts | 216° |
| 2026-04-18 08:50 | -3.68351 | 56.14960 | 28295 ft | 429 kts | 216° |
| 2026-04-18 08:50 | -3.70771 | 56.13243 | 27819 ft | 425 kts | 216° |
| 2026-04-18 08:51 | -3.73174 | 56.11541 | 27374 ft | 421 kts | 216° |
| 2026-04-18 08:51 | -3.75568 | 56.09849 | 26932 ft | 417 kts | 216° |
| 2026-04-18 08:51 | -3.77933 | 56.08174 | 26488 ft | 414 kts | 216° |
| 2026-04-18 08:51 | -3.80272 | 56.06515 | 26052 ft | 410 kts | 216° |
| 2026-04-18 08:52 | -3.82600 | 56.04865 | 25613 ft | 408 kts | 216° |
| 2026-04-18 08:52 | -3.84883 | 56.03248 | 25169 ft | 405 kts | 216° |
| 2026-04-18 08:52 | -3.87184 | 56.01616 | 24735 ft | 403 kts | 216° |
| 2026-04-18 08:52 | -3.89479 | 55.99984 | 24287 ft | 402 kts | 216° |
| 2026-04-18 08:53 | -3.91758 | 55.98367 | 23834 ft | 401 kts | 216° |
| 2026-04-18 08:53 | -3.94039 | 55.96751 | 23340 ft | 400 kts | 216° |
| 2026-04-18 08:53 | -3.96282 | 55.95162 | 22842 ft | 398 kts | 216° |
| 2026-04-18 08:53 | -3.98533 | 55.93567 | 22371 ft | 395 kts | 215° |
| 2026-04-18 08:54 | -4.00777 | 55.91979 | 21877 ft | 392 kts | 215° |
| 2026-04-18 08:54 | -4.02711 | 55.90608 | 21464 ft | 389 kts | 215° |
| 2026-04-18 08:54 | -4.04888 | 55.89062 | 21000 ft | 387 kts | 215° |
| 2026-04-18 08:54 | -4.07076 | 55.87508 | 20517 ft | 384 kts | 215° |
| 2026-04-18 08:55 | -4.09256 | 55.85961 | 20043 ft | 382 kts | 214° |
| 2026-04-18 08:55 | -4.11421 | 55.84424 | 19567 ft | 380 kts | 214° |
| 2026-04-18 08:55 | -4.13574 | 55.82894 | 19092 ft | 378 kts | 214° |
| 2026-04-18 08:55 | -4.15718 | 55.81375 | 18620 ft | 376 kts | 214° |
| 2026-04-18 08:56 | -4.17853 | 55.79861 | 18142 ft | 374 kts | 214° |
| 2026-04-18 08:56 | -4.19974 | 55.78356 | 17627 ft | 372 kts | 214° |
| 2026-04-18 08:56 | -4.22083 | 55.76859 | 17159 ft | 369 kts | 214° |
| 2026-04-18 08:56 | -4.24140 | 55.75396 | 16701 ft | 366 kts | 214° |
| 2026-04-18 08:57 | -4.27888 | 55.72044 | 15783 ft | 363 kts | 239° |
| 2026-04-18 08:57 | -4.28728 | 55.69679 | 15328 ft | 362 kts | 262° |
| 2026-04-18 08:57 | -4.28608 | 55.67166 | 14768 ft | 363 kts | 285° |
| 2026-04-18 08:58 | -4.27607 | 55.64877 | 14227 ft | 363 kts | 300° |
| 2026-04-18 08:58 | -4.26392 | 55.62655 | 13741 ft | 363 kts | 300° |
| 2026-04-18 08:58 | -4.25183 | 55.60445 | 13174 ft | 363 kts | 300° |
| 2026-04-18 08:58 | -4.23982 | 55.58245 | 12822 ft | 356 kts | 299° |
| 2026-04-18 08:59 | -4.22797 | 55.56068 | 12344 ft | 354 kts | 299° |
| 2026-04-18 08:59 | -4.21776 | 55.53846 | 11773 ft | 348 kts | 285° |
| 2026-04-18 08:59 | -4.21636 | 55.51468 | 11200 ft | 338 kts | 259° |
| 2026-04-18 08:59 | -4.22387 | 55.49343 | 11071 ft | 313 kts | 238° |
| 2026-04-18 09:00 | -4.23701 | 55.47724 | 10800 ft | 296 kts | 218° |
| 2026-04-18 09:00 | -4.25442 | 55.46689 | 10336 ft | 288 kts | 197° |
| 2026-04-18 09:00 | -4.27385 | 55.46326 | 9832 ft | 282 kts | 179° |
| 2026-04-18 09:00 | -4.29346 | 55.46333 | 9236 ft | 281 kts | 178° |
| 2026-04-18 09:01 | -4.30639 | 55.46337 | 8853 ft | 280 kts | 178° |
| 2026-04-18 09:02 | -4.31667 | 55.46340 | 8844 ft | 265 kts | 176° |
| 2026-04-18 09:02 | -4.33398 | 55.46207 | 10012 ft | 249 kts | 202° |
| 2026-04-18 09:02 | -4.35029 | 55.45302 | 10412 ft | 289 kts | 206° |
| 2026-04-18 09:03 | -4.37069 | 55.44680 | 10347 ft | 322 kts | 183° |
| 2026-04-18 09:03 | -4.39339 | 55.44728 | 9618 ft | 331 kts | 177° |
| 2026-04-18 09:03 | -4.41598 | 55.44448 | 9113 ft | 330 kts | 192° |
| 2026-04-18 09:03 | -4.43799 | 55.44061 | 8632 ft | 314 kts | 178° |
| 2026-04-18 09:04 | -4.45873 | 55.44469 | 8176 ft | 299 kts | 154° |
| 2026-04-18 09:04 | -4.47484 | 55.45681 | 7792 ft | 283 kts | 127° |
| 2026-04-18 09:04 | -4.48318 | 55.47394 | 7461 ft | 269 kts | 101° |
| 2026-04-18 09:04 | -4.48555 | 55.49245 | 7137 ft | 266 kts | 95° |
| 2026-04-18 09:05 | -4.48695 | 55.51085 | 7082 ft | 266 kts | 94° |
| 2026-04-18 09:05 | -4.48790 | 55.52917 | 7040 ft | 267 kts | 86° |
| 2026-04-18 09:05 | -4.48334 | 55.54704 | 6984 ft | 267 kts | 63° |
| 2026-04-18 09:05 | -4.47166 | 55.56142 | 6938 ft | 268 kts | 38° |
| 2026-04-18 09:06 | -4.45483 | 55.56948 | 6885 ft | 271 kts | 13° |
| 2026-04-18 09:06 | -4.43602 | 55.56957 | 6778 ft | 272 kts | 347° |
| 2026-04-18 09:06 | -4.41943 | 55.56165 | 6674 ft | 260 kts | 321° |
| 2026-04-18 09:06 | -4.40827 | 55.54854 | 6548 ft | 243 kts | 298° |
| 2026-04-18 09:07 | -4.40318 | 55.53305 | 6435 ft | 227 kts | 276° |
| 2026-04-18 09:07 | -4.40400 | 55.51767 | 6321 ft | 219 kts | 255° |
| 2026-04-18 09:07 | -4.40916 | 55.50340 | 6198 ft | 216 kts | 247° |
| 2026-04-18 09:07 | -4.41468 | 55.48939 | 6065 ft | 216 kts | 248° |
| 2026-04-18 09:08 | -4.42019 | 55.47538 | 5940 ft | 216 kts | 248° |
| 2026-04-18 09:08 | -4.42616 | 55.46183 | 5820 ft | 214 kts | 238° |
| 2026-04-18 09:08 | -4.43455 | 55.44956 | 5707 ft | 210 kts | 233° |
| 2026-04-18 09:08 | -4.44285 | 55.43783 | 5455 ft | 203 kts | 233° |
| 2026-04-18 09:09 | -4.45095 | 55.42637 | 5181 ft | 199 kts | 233° |
| 2026-04-18 09:09 | -4.45890 | 55.41510 | 4905 ft | 196 kts | 233° |
| 2026-04-18 09:09 | -4.46672 | 55.40400 | 4633 ft | 193 kts | 233° |
| 2026-04-18 09:09 | -4.47488 | 55.39366 | 4356 ft | 190 kts | 217° |
| 2026-04-18 09:10 | -4.48670 | 55.38905 | 4097 ft | 177 kts | 179° |
| 2026-04-18 09:10 | -4.49792 | 55.39210 | 3840 ft | 162 kts | 145° |
| 2026-04-18 09:10 | -4.50670 | 55.39828 | 3633 ft | 150 kts | 143° |
| 2026-04-18 09:10 | -4.51505 | 55.40413 | 3429 ft | 144 kts | 143° |
| 2026-04-18 09:11 | -4.52328 | 55.40987 | 3218 ft | 143 kts | 143° |
| 2026-04-18 09:11 | -4.53148 | 55.41559 | 3012 ft | 143 kts | 143° |
| 2026-04-18 09:11 | -4.53687 | 55.41935 | 2874 ft | 142 kts | 143° |
| 2026-04-18 09:11 | -4.54496 | 55.42501 | 2671 ft | 141 kts | 143° |
| 2026-04-18 09:12 | -4.55303 | 55.43064 | 2467 ft | 141 kts | 143° |
| 2026-04-18 09:12 | -4.56382 | 55.43818 | 2249 ft | 142 kts | 143° |
| 2026-04-18 09:12 | -4.56918 | 55.44191 | 2128 ft | 140 kts | 144° |
| 2026-04-18 09:12 | -4.57716 | 55.44746 | 1942 ft | 140 kts | 143° |
| 2026-04-18 09:13 | -4.58520 | 55.45310 | 1769 ft | 141 kts | 143° |
| 2026-04-18 09:13 | -4.59326 | 55.45875 | 1605 ft | 141 kts | 143° |
| 2026-04-18 09:13 | -4.60121 | 55.46431 | 1415 ft | 139 kts | 142° |
| 2026-04-18 09:13 | -4.60926 | 55.46969 | 1258 ft | 139 kts | 147° |
| 2026-04-18 09:14 | -4.61791 | 55.47416 | 1116 ft | 141 kts | 154° |
| 2026-04-18 09:14 | -4.62689 | 55.47754 | 981 ft | 142 kts | 160° |
| 2026-04-18 09:14 | -4.63642 | 55.48004 | 846 ft | 141 kts | 166° |
| 2026-04-18 09:14 | -4.64589 | 55.48240 | 704 ft | 139 kts | 154° |
| 2026-04-18 09:15 | -4.65382 | 55.48756 | 568 ft | 134 kts | 122° |
| 2026-04-18 09:15 | -4.65767 | 55.49581 | 683 ft | 137 kts | 109° |
| 2026-04-18 09:15 | -4.66220 | 55.50419 | 443 ft | 134 kts | 126° |
| 2026-04-18 09:15 | -4.66757 | 55.51206 | 99 ft | 135 kts | 125° |
| 2026-04-18 09:16 | -4.67266 | 55.51943 | 44 ft | 125 kts | 124° |
| 2026-04-18 09:16 | -4.67748 | 55.52651 | 414 ft | 123 kts | 129° |
| 2026-04-18 09:16 | -4.68372 | 55.53317 | 991 ft | 139 kts | 128° |
| 2026-04-18 09:16 | -4.69086 | 55.53996 | 1468 ft | 147 kts | 155° |
| 2026-04-18 09:17 | -4.70136 | 55.53758 | 1571 ft | 185 kts | 231° |
| 2026-04-18 09:17 | -4.70746 | 55.52554 | 2151 ft | 212 kts | 244° |
| 2026-04-18 09:17 | -4.71775 | 55.51253 | 2375 ft | 273 kts | 216° |
| 2026-04-18 09:17 | -4.73666 | 55.50398 | 2408 ft | 324 kts | 191° |
| 2026-04-18 09:18 | -4.76047 | 55.50364 | 2398 ft | 362 kts | 169° |
| 2026-04-18 09:18 | -4.78460 | 55.51143 | 2364 ft | 356 kts | 157° |
| 2026-04-18 09:18 | -4.80550 | 55.52302 | 2399 ft | 333 kts | 137° |
| 2026-04-18 09:18 | -4.82069 | 55.53958 | 2405 ft | 312 kts | 132° |
| 2026-04-18 09:19 | -4.83630 | 55.55315 | 2403 ft | 281 kts | 141° |
| 2026-04-18 09:19 | -4.85105 | 55.56453 | 2406 ft | 254 kts | 141° |
| 2026-04-18 09:19 | -4.86445 | 55.57469 | 2406 ft | 229 kts | 142° |
| 2026-04-18 09:19 | -4.87516 | 55.58510 | 2410 ft | 212 kts | 122° |
| 2026-04-18 09:20 | -4.88062 | 55.59856 | 2415 ft | 209 kts | 98° |
| 2026-04-18 09:20 | -4.87973 | 55.61296 | 2412 ft | 209 kts | 72° |
| 2026-04-18 09:20 | -4.87262 | 55.62561 | 2408 ft | 210 kts | 47° |
| 2026-04-18 09:20 | -4.86069 | 55.63398 | 2412 ft | 211 kts | 24° |
| 2026-04-18 09:21 | -4.84717 | 55.63975 | 2433 ft | 211 kts | 24° |
| 2026-04-18 09:21 | -4.83364 | 55.64555 | 2417 ft | 211 kts | 24° |
| 2026-04-18 09:21 | -4.82017 | 55.65137 | 2410 ft | 211 kts | 25° |
| 2026-04-18 09:21 | -4.80685 | 55.65710 | 2408 ft | 211 kts | 22° |
| 2026-04-18 09:22 | -4.79245 | 55.65985 | 2409 ft | 212 kts | 2° |
| 2026-04-18 09:22 | -4.77811 | 55.65741 | 2403 ft | 201 kts | 341° |
| 2026-04-18 09:22 | -4.76683 | 55.65102 | 2393 ft | 174 kts | 322° |
| 2026-04-18 09:22 | -4.75897 | 55.64276 | 2423 ft | 157 kts | 307° |
| 2026-04-18 09:23 | -4.75279 | 55.63397 | 2327 ft | 152 kts | 306° |
| 2026-04-18 09:23 | -4.74678 | 55.62538 | 2181 ft | 149 kts | 306° |
| 2026-04-18 09:23 | -4.74084 | 55.61689 | 2001 ft | 148 kts | 306° |
| 2026-04-18 09:23 | -4.73494 | 55.60846 | 1822 ft | 147 kts | 306° |
| 2026-04-18 09:24 | -4.72904 | 55.60004 | 1636 ft | 148 kts | 306° |
| 2026-04-18 09:24 | -4.72312 | 55.59158 | 1438 ft | 147 kts | 307° |
| 2026-04-18 09:24 | -4.71727 | 55.58321 | 1255 ft | 146 kts | 306° |
| 2026-04-18 09:24 | -4.71145 | 55.57489 | 1064 ft | 146 kts | 306° |
| 2026-04-18 09:25 | -4.70563 | 55.56658 | 886 ft | 145 kts | 307° |
| 2026-04-18 09:25 | -4.69987 | 55.55835 | 706 ft | 146 kts | 306° |
| 2026-04-18 09:25 | -4.69404 | 55.55001 | 513 ft | 147 kts | 306° |
| 2026-04-18 09:25 | -4.68760 | 55.54201 | 334 ft | 147 kts | 304° |
| 2026-04-18 09:26 | -4.68240 | 55.53299 | 143 ft | 152 kts | 302° |
| 2026-04-18 09:26 | -4.67578 | 55.52511 | 265 ft | 153 kts | 314° |
| 2026-04-18 09:26 | -4.66851 | 55.51709 | 966 ft | 156 kts | 313° |
| 2026-04-18 09:26 | -4.65999 | 55.51030 | 1396 ft | 161 kts | 332° |
| 2026-04-18 09:27 | -4.64945 | 55.50503 | 1530 ft | 176 kts | 337° |
| 2026-04-18 09:27 | -4.63774 | 55.50039 | 1665 ft | 184 kts | 350° |
| 2026-04-18 09:27 | -4.62508 | 55.50168 | 1839 ft | 192 kts | 25° |
| 2026-04-18 09:27 | -4.61506 | 55.51095 | 2144 ft | 206 kts | 65° |
| 2026-04-18 09:28 | -4.61300 | 55.52520 | 2383 ft | 211 kts | 104° |
| 2026-04-18 09:28 | -4.62066 | 55.53728 | 2406 ft | 209 kts | 138° |
| 2026-04-18 09:28 | -4.63180 | 55.54664 | 2407 ft | 207 kts | 140° |
| 2026-04-18 09:28 | -4.64257 | 55.55562 | 2425 ft | 198 kts | 139° |
| 2026-04-18 09:29 | -4.65307 | 55.56441 | 2414 ft | 194 kts | 139° |
| 2026-04-18 09:29 | -4.66340 | 55.57311 | 2409 ft | 193 kts | 139° |
| 2026-04-18 09:29 | -4.67357 | 55.58168 | 2394 ft | 194 kts | 139° |
| 2026-04-18 09:29 | -4.68393 | 55.59042 | 2207 ft | 194 kts | 139° |
| 2026-04-18 09:30 | -4.69421 | 55.59909 | 2065 ft | 193 kts | 139° |
| 2026-04-18 09:30 | -4.70454 | 55.60769 | 2005 ft | 192 kts | 142° |
| 2026-04-18 09:30 | -4.71689 | 55.61276 | 2003 ft | 195 kts | 173° |
| 2026-04-18 09:30 | -4.72924 | 55.60880 | 1982 ft | 182 kts | 223° |
| 2026-04-18 09:31 | -4.73390 | 55.59773 | 1673 ft | 175 kts | 277° |
| 2026-04-18 09:31 | -4.72816 | 55.58839 | 1457 ft | 152 kts | 334° |
| 2026-04-18 09:31 | -4.71880 | 55.58420 | 1275 ft | 147 kts | 328° |
| 2026-04-18 09:31 | -4.71329 | 55.57586 | 1100 ft | 146 kts | 295° |
| 2026-04-18 09:32 | -4.70731 | 55.56801 | 924 ft | 143 kts | 316° |
| 2026-04-18 09:32 | -4.70113 | 55.55990 | 736 ft | 146 kts | 308° |
| 2026-04-18 09:32 | -4.69533 | 55.55175 | 564 ft | 145 kts | 307° |
| 2026-04-18 09:32 | -4.68940 | 55.54333 | 364 ft | 147 kts | 306° |
| 2026-04-18 09:33 | -4.68364 | 55.53494 | 180 ft | 149 kts | 302° |
| 2026-04-18 09:33 | -4.67778 | 55.52639 | 24 ft | 147 kts | 306° |
| 2026-04-18 09:33 | -4.67297 | 55.51990 | 26 ft | 94 kts | 306° |
| 2026-04-18 09:33 | -4.67022 | 55.51597 | 23 ft | 53 kts | 305° |
| 2026-04-18 09:34 | -4.66898 | 55.51419 | 24 ft | 12 kts | 302° |
| 2026-04-18 09:34 | -4.66911 | 55.51365 | 24 ft | 4 kts | 205° |
| 2026-04-18 09:34 | -4.66925 | 55.51355 | 23 ft | 0 kts | 215° |
| 2026-04-18 09:34 | -4.66935 | 55.51348 | 23 ft | 4 kts | 216° |
| 2026-04-18 09:35 | -4.66969 | 55.51324 | 22 ft | 8 kts | 214° |
| 2026-04-18 09:35 | -4.67008 | 55.51276 | 22 ft | 10 kts | 284° |
| 2026-04-18 09:35 | -4.66975 | 55.51217 | 24 ft | 7 kts | 258° |
| 2026-04-18 09:35 | -4.66998 | 55.51201 | 23 ft | 5 kts | 220° |
| 2026-04-18 09:36 | -4.67026 | 55.51183 | 23 ft | 0 kts | 213° |